createdAt,value
2019-05-23T00:01:12.693Z,14.50
2019-05-23T00:04:14.323Z,14.50
2019-05-23T00:07:05.445Z,14.50
2019-05-23T00:09:55.843Z,14.50
2019-05-23T00:12:47.900Z,14.50
2019-05-23T00:15:28.042Z,14.50
2019-05-23T00:18:00.754Z,14.40
2019-05-23T00:20:34.411Z,14.40
2019-05-23T00:23:07.155Z,14.40
2019-05-23T00:25:40.858Z,14.40
2019-05-23T00:28:13.115Z,14.50
2019-05-23T00:30:59.229Z,14.40
2019-05-23T00:33:32.712Z,14.50
2019-05-23T00:36:04.155Z,14.60
2019-05-23T00:38:37.004Z,14.60
2019-05-23T00:41:08.330Z,14.60
2019-05-23T00:43:41.471Z,14.60
2019-05-23T00:46:14.598Z,14.60
2019-05-23T00:48:46.085Z,14.60
2019-05-23T00:51:19.047Z,14.50
2019-05-23T00:53:51.505Z,14.60
2019-05-23T00:56:23.862Z,14.50
2019-05-23T00:58:56.497Z,14.50
2019-05-23T01:01:29.387Z,14.50
2019-05-23T01:04:01.437Z,14.60
2019-05-23T01:06:34.836Z,14.60
2019-05-23T01:09:08.214Z,14.60
2019-05-23T01:11:40.006Z,14.60
2019-05-23T01:14:11.445Z,14.60
2019-05-23T01:16:42.902Z,14.60
2019-05-23T01:19:15.557Z,14.60
2019-05-23T01:21:59.358Z,14.60
2019-05-23T01:24:38.529Z,14.60
2019-05-23T01:27:10.514Z,14.70
2019-05-23T01:29:49.964Z,14.70
2019-05-23T01:32:28.288Z,14.70
2019-05-23T01:35:00.072Z,14.70
2019-05-23T01:37:32.414Z,14.70
2019-05-23T01:40:04.282Z,14.70
2019-05-23T01:42:36.814Z,14.70
2019-05-23T01:45:09.518Z,14.70
2019-05-23T01:47:41.628Z,14.80
2019-05-23T01:50:16.061Z,14.80
2019-05-23T01:52:49.478Z,14.80
2019-05-23T01:55:21.526Z,14.80
2019-05-23T01:57:53.762Z,14.70
2019-05-23T02:00:29.941Z,14.70
2019-05-23T02:03:01.438Z,14.80
2019-05-23T02:05:34.899Z,14.80
2019-05-23T02:08:09.546Z,14.80
2019-05-23T02:10:41.563Z,14.80
2019-05-23T02:13:13.923Z,14.80
2019-05-23T02:15:45.596Z,14.80
2019-05-23T02:18:17.817Z,14.90
2019-05-23T02:20:49.810Z,14.90
2019-05-23T02:23:24.122Z,14.90
2019-05-23T02:25:57.827Z,14.90
2019-05-23T02:28:31.541Z,14.90
2019-05-23T02:31:02.914Z,14.90
2019-05-23T02:33:35.730Z,14.90
2019-05-23T02:36:07.405Z,14.90
2019-05-23T02:38:57.053Z,14.90
2019-05-23T02:41:54.570Z,15.00
2019-05-23T02:44:28.289Z,15.00
2019-05-23T02:47:21.716Z,14.90
2019-05-23T02:49:55.932Z,15.00
2019-05-23T02:52:39.232Z,15.10
2019-05-23T02:55:16.199Z,15.10
2019-05-23T02:57:48.589Z,15.20
2019-05-23T03:00:54.654Z,15.20
2019-05-23T03:03:30.658Z,15.30
2019-05-23T03:06:05.409Z,15.30
2019-05-23T03:08:38.073Z,15.30
2019-05-23T03:11:19.229Z,15.40
2019-05-23T03:13:52.864Z,15.40
2019-05-23T03:16:27.658Z,15.40
2019-05-23T03:19:03.024Z,15.50
2019-05-23T03:21:36.039Z,15.60
2019-05-23T03:24:07.831Z,15.50
2019-05-23T03:27:00.292Z,15.60
2019-05-23T03:29:34.662Z,15.60
2019-05-23T03:32:38.091Z,15.60
2019-05-23T03:35:29.320Z,15.60
2019-05-23T03:38:02.797Z,15.70
2019-05-23T03:40:35.561Z,15.70
2019-05-23T03:43:10.235Z,15.60
2019-05-23T03:45:48.298Z,15.60
2019-05-23T03:48:20.830Z,15.70
2019-05-23T03:50:52.500Z,15.60
2019-05-23T03:53:27.865Z,15.70
2019-05-23T03:55:59.699Z,15.70
2019-05-23T03:58:31.910Z,15.70
2019-05-23T04:01:06.181Z,15.70
2019-05-23T04:03:40.107Z,15.70
2019-05-23T04:06:13.061Z,15.70
2019-05-23T04:08:44.830Z,15.70
2019-05-23T04:11:17.127Z,15.80
2019-05-23T04:13:48.772Z,15.80
2019-05-23T04:16:20.385Z,15.90
2019-05-23T04:18:52.145Z,15.90
2019-05-23T04:21:24.774Z,16.00
2019-05-23T04:23:56.297Z,16.00
2019-05-23T04:26:28.068Z,16.10
2019-05-23T04:28:59.582Z,16.20
2019-05-23T04:31:31.070Z,16.20
2019-05-23T04:34:02.962Z,16.20
2019-05-23T04:36:34.430Z,16.20
2019-05-23T04:39:06.809Z,16.20
2019-05-23T04:41:38.677Z,16.20
2019-05-23T04:44:10.998Z,16.20
2019-05-23T04:46:42.378Z,16.20
2019-05-23T04:49:13.811Z,16.30
2019-05-23T04:51:45.198Z,16.30
2019-05-23T04:54:16.965Z,16.30
2019-05-23T04:56:50.123Z,16.40
2019-05-23T04:59:23.426Z,16.40
2019-05-23T05:01:56.755Z,16.50
2019-05-23T05:04:28.261Z,16.40
2019-05-23T05:06:59.699Z,16.50
2019-05-23T05:09:33.552Z,16.60
2019-05-23T05:12:07.160Z,16.70
2019-05-23T05:14:39.044Z,16.80
2019-05-23T05:17:12.004Z,16.90
2019-05-23T05:19:43.663Z,17.10
2019-05-23T05:22:15.119Z,17.30
2019-05-23T05:24:46.904Z,17.30
2019-05-23T05:27:19.930Z,17.40
2019-05-23T05:29:51.325Z,17.40
2019-05-23T05:32:24.465Z,17.50
2019-05-23T05:34:55.836Z,17.60
2019-05-23T05:37:27.320Z,18.00
2019-05-23T05:39:59.786Z,18.80
2019-05-23T05:42:31.473Z,19.40
2019-05-23T05:45:04.701Z,20.40
2019-05-23T05:47:37.015Z,21.30
2019-05-23T05:50:09.572Z,22.40
2019-05-23T05:52:41.284Z,23.30
2019-05-23T05:55:13.363Z,23.90
2019-05-23T05:57:45.912Z,25.30
2019-05-23T06:00:36.587Z,27.00
2019-05-23T06:03:09.208Z,27.40
2019-05-23T06:05:56.653Z,26.70
2019-05-23T06:08:30.195Z,26.90
2019-05-23T06:11:01.935Z,27.10
2019-05-23T06:13:33.571Z,27.80
2019-05-23T06:16:05.275Z,28.50
2019-05-23T06:18:37.165Z,28.50
2019-05-23T06:21:11.900Z,27.90
2019-05-23T06:23:44.151Z,28.30
2019-05-23T06:26:16.019Z,27.60
2019-05-23T06:28:47.917Z,27.90
2019-05-23T06:31:21.636Z,29.20
2019-05-23T06:33:54.593Z,28.90
2019-05-23T06:36:27.734Z,27.30
2019-05-23T06:39:00.642Z,26.70
2019-05-23T06:41:32.678Z,28.00
2019-05-23T06:44:05.636Z,27.50
2019-05-23T06:46:39.382Z,28.20
2019-05-23T06:49:11.577Z,27.80
2019-05-23T06:51:43.571Z,27.00
2019-05-23T06:54:15.378Z,28.00
2019-05-23T06:56:47.661Z,29.60
2019-05-23T06:59:19.886Z,29.60
2019-05-23T07:01:51.682Z,29.70
2019-05-23T07:04:23.594Z,29.50
2019-05-23T07:06:55.892Z,29.70
2019-05-23T07:09:27.898Z,28.50
2019-05-23T07:12:01.462Z,27.70
2019-05-23T07:14:33.898Z,26.50
2019-05-23T07:17:06.242Z,26.20
2019-05-23T07:19:37.949Z,25.70
2019-05-23T07:22:11.751Z,26.30
2019-05-23T07:24:57.416Z,26.80
2019-05-23T07:27:18.441Z,27.00
2019-05-23T07:29:50.426Z,27.80
2019-05-23T07:32:22.488Z,28.80
2019-05-23T07:34:54.423Z,29.40
2019-05-23T07:37:26.222Z,29.50
2019-05-23T07:39:58.340Z,30.20
2019-05-23T07:42:31.334Z,30.40
2019-05-23T07:45:04.460Z,30.10
2019-05-23T07:47:39.937Z,29.60
2019-05-23T07:50:10.272Z,28.60
2019-05-23T07:52:42.372Z,27.50
2019-05-23T07:55:26.882Z,28.00
2019-05-23T07:57:58.992Z,27.60
2019-05-23T08:00:33.599Z,27.30
2019-05-23T08:03:08.552Z,26.90
2019-05-23T08:05:40.636Z,26.30
2019-05-23T08:08:12.695Z,26.20
2019-05-23T08:10:45.323Z,25.90
2019-05-23T08:13:15.005Z,25.80
2019-05-23T08:15:47.171Z,25.50
2019-05-23T08:18:20.168Z,25.80
2019-05-23T08:20:52.364Z,25.90
2019-05-23T08:23:24.656Z,25.30
2019-05-23T08:25:57.446Z,24.90
2019-05-23T08:28:30.200Z,24.60
2019-05-23T08:31:02.326Z,25.10
2019-05-23T08:33:35.289Z,25.50
2019-05-23T08:36:07.710Z,25.90
2019-05-23T08:38:40.148Z,26.10
2019-05-23T08:41:12.352Z,26.10
2019-05-23T08:43:44.963Z,26.30
2019-05-23T08:46:20.713Z,26.10
2019-05-23T08:48:53.362Z,25.90
2019-05-23T08:51:25.337Z,25.40
2019-05-23T08:53:57.163Z,25.00
2019-05-23T08:56:29.332Z,24.80
2019-05-23T08:59:01.774Z,24.50
2019-05-23T09:01:34.572Z,24.40
2019-05-23T09:04:07.735Z,24.20
2019-05-23T09:06:40.569Z,24.20
2019-05-23T09:09:28.500Z,24.30
2019-05-23T09:11:48.325Z,24.20
2019-05-23T09:14:20.461Z,24.10
2019-05-23T09:16:52.623Z,23.60
2019-05-23T09:19:25.231Z,23.60
2019-05-23T09:21:58.199Z,23.60
2019-05-23T09:24:31.640Z,23.70
2019-05-23T09:27:04.262Z,23.60
2019-05-23T09:29:36.639Z,23.70
2019-05-23T09:32:09.103Z,23.40
2019-05-23T09:34:40.920Z,23.40
2019-05-23T09:37:13.805Z,23.40
2019-05-23T09:39:46.206Z,23.60
2019-05-23T09:42:18.551Z,23.80
2019-05-23T09:44:50.584Z,24.10
2019-05-23T09:47:22.359Z,24.10
2019-05-23T09:49:54.732Z,24.50
2019-05-23T09:52:27.330Z,24.80
2019-05-23T09:54:59.256Z,24.60
2019-05-23T09:57:31.527Z,25.20
2019-05-23T10:00:04.067Z,25.50
2019-05-23T10:02:36.631Z,25.90
2019-05-23T10:05:11.137Z,26.00
2019-05-23T10:07:43.130Z,25.30
2019-05-23T10:10:15.899Z,25.50
2019-05-23T10:12:47.715Z,25.80
2019-05-23T10:15:41.268Z,25.80
2019-05-23T10:18:18.271Z,25.80
2019-05-23T10:20:50.839Z,26.10
2019-05-23T10:23:22.950Z,25.90
2019-05-23T10:25:54.805Z,25.80
2019-05-23T10:28:26.872Z,25.40
2019-05-23T10:30:59.093Z,25.00
2019-05-23T10:33:32.236Z,24.70
2019-05-23T10:36:04.452Z,24.30
2019-05-23T10:38:36.321Z,24.60
2019-05-23T10:41:08.293Z,25.10
2019-05-23T10:43:40.300Z,25.00
2019-05-23T10:46:12.992Z,24.50
2019-05-23T10:48:45.121Z,24.30
2019-05-23T10:51:17.023Z,24.40
2019-05-23T10:53:48.973Z,24.50
2019-05-23T10:56:21.978Z,24.40
2019-05-23T10:58:53.990Z,24.50
2019-05-23T11:01:26.764Z,24.80
2019-05-23T11:03:59.134Z,24.90
2019-05-23T11:06:32.142Z,25.20
2019-05-23T11:09:07.225Z,25.40
2019-05-23T11:11:39.113Z,25.50
2019-05-23T11:14:11.338Z,25.70
2019-05-23T11:16:43.429Z,25.90
2019-05-23T11:19:15.115Z,26.10
2019-05-23T11:21:46.998Z,26.00
2019-05-23T11:24:19.378Z,25.50
2019-05-23T11:26:51.669Z,25.60
2019-05-23T11:29:27.255Z,25.80
2019-05-23T11:31:58.115Z,25.80
2019-05-23T11:34:31.106Z,25.80
2019-05-23T11:37:03.009Z,25.80
2019-05-23T11:39:42.024Z,25.80
2019-05-23T11:42:08.867Z,25.60
2019-05-23T11:44:40.811Z,25.10
2019-05-23T11:47:13.555Z,24.00
2019-05-23T11:49:45.768Z,23.40
2019-05-23T11:52:18.040Z,22.90
2019-05-23T11:54:50.262Z,23.10
2019-05-23T11:57:22.193Z,23.20
2019-05-23T11:59:54.596Z,23.20
2019-05-23T12:02:45.292Z,23.20
2019-05-23T12:05:24.751Z,23.20
2019-05-23T12:07:56.911Z,23.20
2019-05-23T12:10:29.325Z,23.30
2019-05-23T12:13:01.488Z,23.30
2019-05-23T12:15:36.763Z,23.20
2019-05-23T12:18:10.092Z,23.10
2019-05-23T12:20:42.013Z,23.10
2019-05-23T12:23:14.094Z,23.00
2019-05-23T12:25:45.885Z,22.70
2019-05-23T12:28:18.204Z,22.40
2019-05-23T12:30:50.191Z,22.20
2019-05-23T12:33:22.245Z,21.90
2019-05-23T12:35:54.425Z,21.70
2019-05-23T12:38:26.574Z,21.50
2019-05-23T12:40:58.845Z,21.20
2019-05-23T12:43:30.771Z,21.30
2019-05-23T12:46:02.630Z,21.20
2019-05-23T12:48:46.242Z,20.80
2019-05-23T12:51:19.450Z,20.80
2019-05-23T12:53:51.347Z,20.70
2019-05-23T12:56:24.227Z,20.80
2019-05-23T12:58:56.703Z,20.80
2019-05-23T13:01:29.196Z,20.80
2019-05-23T13:04:02.112Z,20.70
2019-05-23T13:06:35.324Z,20.60
2019-05-23T13:09:10.241Z,20.60
2019-05-23T13:11:42.801Z,20.60
2019-05-23T13:14:14.961Z,20.60
2019-05-23T13:16:47.292Z,20.80
2019-05-23T13:19:19.297Z,20.90
2019-05-23T13:21:51.234Z,21.00
2019-05-23T13:24:23.535Z,21.10
2019-05-23T13:26:55.321Z,21.20
2019-05-23T13:29:27.522Z,21.20
2019-05-23T13:32:00.172Z,21.30
2019-05-23T13:34:32.982Z,21.40
2019-05-23T13:37:06.490Z,21.30
2019-05-23T13:39:39.110Z,21.00
2019-05-23T13:42:10.994Z,20.80
2019-05-23T13:44:43.069Z,20.60
2019-05-23T13:47:14.959Z,20.30
2019-05-23T13:49:46.891Z,20.20
2019-05-23T13:52:18.751Z,20.00
2019-05-23T13:54:50.735Z,19.90
2019-05-23T13:57:22.839Z,19.90
2019-05-23T13:59:54.808Z,19.90
2019-05-23T14:02:27.194Z,19.80
2019-05-23T14:05:00.059Z,19.70
2019-05-23T14:07:33.519Z,19.70
2019-05-23T14:10:06.812Z,19.50
2019-05-23T14:12:39.183Z,19.30
2019-05-23T14:15:13.188Z,19.30
2019-05-23T14:17:45.777Z,19.20
2019-05-23T14:20:18.332Z,19.10
2019-05-23T14:22:55.154Z,19.10
2019-05-23T14:25:27.251Z,19.10
2019-05-23T14:28:04.580Z,19.00
2019-05-23T14:30:54.296Z,19.00
2019-05-23T14:33:54.285Z,19.00
2019-05-23T14:36:43.957Z,19.00
2019-05-23T14:39:25.712Z,18.90
2019-05-23T14:42:06.752Z,18.90
2019-05-23T14:44:38.564Z,18.90
2019-05-23T14:47:28.072Z,18.90
2019-05-23T14:50:11.239Z,18.90
2019-05-23T14:52:44.341Z,18.80
2019-05-23T14:55:16.966Z,18.80
2019-05-23T14:57:49.360Z,18.70
2019-05-23T15:00:23.018Z,18.80
2019-05-23T15:02:55.461Z,18.80
2019-05-23T15:05:28.200Z,18.80
2019-05-23T15:08:00.131Z,18.80
2019-05-23T15:10:32.198Z,18.80
2019-05-23T15:13:04.142Z,18.80
2019-05-23T15:15:36.132Z,18.70
2019-05-23T15:18:08.332Z,18.70
2019-05-23T15:20:40.219Z,18.70
2019-05-23T15:23:12.188Z,18.60
2019-05-23T15:25:44.489Z,18.60
2019-05-23T15:28:16.554Z,18.60
2019-05-23T15:30:48.560Z,18.60
2019-05-23T15:33:20.400Z,18.60
2019-05-23T15:35:52.464Z,18.50
2019-05-23T15:38:24.523Z,18.40
2019-05-23T15:40:56.429Z,18.40
2019-05-23T15:43:28.223Z,18.40
2019-05-23T15:46:01.188Z,18.30
2019-05-23T15:48:33.146Z,18.30
2019-05-23T15:51:07.704Z,18.30
2019-05-23T15:53:55.572Z,18.20
2019-05-23T15:56:45.623Z,18.20
2019-05-23T15:59:43.977Z,18.20
2019-05-23T16:02:22.075Z,18.10
2019-05-23T16:04:56.947Z,18.10
2019-05-23T16:07:28.795Z,17.90
2019-05-23T16:10:01.242Z,17.90
2019-05-23T16:12:33.707Z,17.90
2019-05-23T16:15:06.733Z,17.90
2019-05-23T16:17:38.766Z,17.90
2019-05-23T16:20:10.962Z,17.90
2019-05-23T16:22:42.994Z,17.90
2019-05-23T16:25:15.139Z,17.90
2019-05-23T16:27:47.205Z,17.90
2019-05-23T16:30:19.751Z,17.80
2019-05-23T16:32:52.062Z,17.90
2019-05-23T16:35:24.232Z,17.90
2019-05-23T16:37:56.466Z,17.90
2019-05-23T16:40:28.669Z,17.90
2019-05-23T16:43:00.472Z,17.80
2019-05-23T16:45:32.612Z,17.90
2019-05-23T16:48:04.632Z,17.80
2019-05-23T16:50:36.801Z,17.80
2019-05-23T16:53:08.660Z,17.80
2019-05-23T16:55:46.571Z,17.80
2019-05-23T16:58:34.592Z,17.70
2019-05-23T17:01:24.174Z,17.60
2019-05-23T17:04:14.821Z,17.60
2019-05-23T17:06:54.430Z,17.70
2019-05-23T17:10:08.799Z,17.60
2019-05-23T17:12:58.598Z,17.70
2019-05-23T17:15:55.438Z,17.60
2019-05-23T17:18:48.762Z,17.60
2019-05-23T17:21:28.341Z,17.50
2019-05-23T17:24:25.461Z,17.50
2019-05-23T17:27:05.368Z,17.40
2019-05-23T17:29:49.262Z,17.50
2019-05-23T17:32:26.137Z,17.40
2019-05-23T17:34:58.275Z,17.50
2019-05-23T17:37:30.482Z,17.40
2019-05-23T17:40:02.602Z,17.40
2019-05-23T17:42:35.082Z,17.40
2019-05-23T17:45:08.263Z,17.40
2019-05-23T17:47:40.571Z,17.30
2019-05-23T17:50:12.761Z,17.20
2019-05-23T17:52:44.969Z,17.20
2019-05-23T17:55:17.252Z,17.30
2019-05-23T17:57:49.410Z,17.30
2019-05-23T18:00:24.501Z,17.20
2019-05-23T18:02:56.662Z,17.20
2019-05-23T18:05:28.765Z,17.20
2019-05-23T18:08:01.740Z,17.10
2019-05-23T18:10:44.616Z,17.10
2019-05-23T18:13:09.710Z,17.20
2019-05-23T18:15:42.037Z,17.20
2019-05-23T18:18:15.595Z,17.10
2019-05-23T18:20:47.854Z,17.20
2019-05-23T18:23:20.154Z,17.10
2019-05-23T18:25:52.276Z,17.10
2019-05-23T18:28:25.405Z,17.10
2019-05-23T18:31:05.923Z,17.10
2019-05-23T18:33:35.089Z,17.10
2019-05-23T18:36:07.406Z,17.20
2019-05-23T18:38:39.790Z,17.20
2019-05-23T18:41:11.842Z,17.20
2019-05-23T18:43:43.624Z,17.10
2019-05-23T18:46:21.413Z,16.90
2019-05-23T18:48:53.384Z,16.90
2019-05-23T18:51:25.232Z,16.90
2019-05-23T18:53:57.155Z,17.00
2019-05-23T18:56:29.145Z,17.00
2019-05-23T18:59:01.678Z,17.10
2019-05-23T19:01:33.662Z,17.10
2019-05-23T19:04:05.993Z,17.10
2019-05-23T19:06:39.002Z,17.10
2019-05-23T19:09:13.761Z,17.00
2019-05-23T19:11:46.274Z,17.00
2019-05-23T19:14:18.121Z,17.00
2019-05-23T19:16:50.128Z,17.00
2019-05-23T19:19:23.379Z,17.00
2019-05-23T19:21:55.321Z,17.00
2019-05-23T19:24:27.707Z,16.80
2019-05-23T19:27:00.612Z,16.90
2019-05-23T19:29:32.662Z,16.90
2019-05-23T19:32:04.582Z,16.90
2019-05-23T19:34:36.454Z,16.80
2019-05-23T19:37:09.678Z,16.80
2019-05-23T19:39:41.578Z,16.70
2019-05-23T19:42:15.181Z,16.80
2019-05-23T19:44:47.203Z,16.90
2019-05-23T19:47:19.086Z,16.80
2019-05-23T19:49:51.099Z,16.90
2019-05-23T19:52:23.540Z,16.90
2019-05-23T19:54:55.985Z,16.90
2019-05-23T19:57:30.951Z,16.90
2019-05-23T20:00:02.898Z,16.80
2019-05-23T20:02:52.577Z,16.70
2019-05-23T20:05:34.197Z,16.60
2019-05-23T20:08:06.365Z,16.60
2019-05-23T20:10:39.146Z,16.60
2019-05-23T20:13:11.459Z,16.50
2019-05-23T20:15:46.041Z,16.50
2019-05-23T20:18:19.005Z,16.50
2019-05-23T20:20:52.235Z,16.60
2019-05-23T20:23:24.244Z,16.60
2019-05-23T20:25:56.368Z,16.60
2019-05-23T20:28:29.137Z,16.70
2019-05-23T20:31:01.494Z,16.70
2019-05-23T20:33:33.519Z,16.70
2019-05-23T20:36:12.718Z,16.60
2019-05-23T20:38:45.607Z,16.50
2019-05-23T20:41:18.384Z,16.50
2019-05-23T20:43:50.435Z,16.50
2019-05-23T20:46:22.372Z,16.40
2019-05-23T20:48:54.362Z,16.30
2019-05-23T20:51:27.194Z,16.30
2019-05-23T20:53:59.207Z,16.20
2019-05-23T20:56:31.380Z,16.20
2019-05-23T20:59:03.329Z,16.20
2019-05-23T21:01:38.977Z,16.10
2019-05-23T21:04:11.116Z,16.10
2019-05-23T21:06:43.005Z,16.10
2019-05-23T21:09:16.092Z,16.10
2019-05-23T21:11:48.581Z,16.10
2019-05-23T21:14:21.086Z,16.00
2019-05-23T21:16:53.097Z,15.90
2019-05-23T21:19:25.390Z,15.90
2019-05-23T21:21:57.568Z,16.00
2019-05-23T21:24:31.860Z,15.90
2019-05-23T21:27:03.839Z,15.80
2019-05-23T21:29:36.045Z,15.80
2019-05-23T21:32:07.938Z,15.80
2019-05-23T21:34:40.182Z,15.70
2019-05-23T21:37:12.141Z,15.70
2019-05-23T21:39:44.119Z,15.70
2019-05-23T21:42:16.218Z,15.70
2019-05-23T21:44:48.153Z,15.70
2019-05-23T21:47:20.321Z,15.70
2019-05-23T21:49:52.259Z,15.70
2019-05-23T21:52:24.480Z,15.60
2019-05-23T21:54:56.296Z,15.60
2019-05-23T21:57:28.701Z,15.50
2019-05-23T22:00:00.546Z,15.40
2019-05-23T22:02:35.341Z,15.40
2019-05-23T22:05:25.565Z,15.40
2019-05-23T22:07:57.694Z,15.40
2019-05-23T22:10:29.749Z,15.40
2019-05-23T22:13:04.823Z,15.40
2019-05-23T22:15:40.270Z,15.30
2019-05-23T22:18:12.179Z,15.30
2019-05-23T22:20:44.769Z,15.20
2019-05-23T22:23:17.223Z,15.10
2019-05-23T22:25:49.374Z,15.10
2019-05-23T22:28:21.606Z,15.10
2019-05-23T22:30:53.940Z,15.10
2019-05-23T22:33:28.253Z,15.10
2019-05-23T22:36:01.293Z,15.10
2019-05-23T22:38:33.394Z,15.20
2019-05-23T22:41:05.361Z,15.00
2019-05-23T22:43:37.316Z,14.90
2019-05-23T22:46:10.217Z,14.80
2019-05-23T22:48:42.253Z,14.80
2019-05-23T22:51:14.127Z,14.80
2019-05-23T22:53:46.200Z,14.70
2019-05-23T22:56:17.995Z,14.50
2019-05-23T22:58:50.129Z,14.50
2019-05-23T23:01:23.409Z,14.40
2019-05-23T23:03:55.237Z,14.40
2019-05-23T23:06:27.565Z,14.40
2019-05-23T23:08:59.669Z,14.40
2019-05-23T23:11:31.712Z,14.30
2019-05-23T23:14:03.572Z,14.40
2019-05-23T23:16:35.578Z,14.40
2019-05-23T23:19:07.667Z,14.40
2019-05-23T23:21:39.884Z,14.40
2019-05-23T23:24:12.651Z,14.50
2019-05-23T23:26:44.465Z,14.40
2019-05-23T23:29:16.497Z,14.30
2019-05-23T23:31:48.403Z,14.30
2019-05-23T23:34:20.537Z,14.10
2019-05-23T23:36:52.222Z,14.20
2019-05-23T23:39:24.375Z,14.20
2019-05-23T23:41:56.155Z,14.20
2019-05-23T23:44:36.091Z,14.30
2019-05-23T23:47:25.904Z,14.20
2019-05-23T23:50:15.150Z,14.10
2019-05-23T23:53:04.812Z,14.20
2019-05-23T23:55:55.449Z,14.10
2019-05-23T23:58:26.090Z,14.00
